createdAt,value
2022-08-11T00:01:22.343Z,26.00
2022-08-11T00:03:54.620Z,25.90
2022-08-11T00:06:31.404Z,25.90
2022-08-11T00:09:00.569Z,25.80
2022-08-11T00:11:44.895Z,25.80
2022-08-11T00:14:19.186Z,25.70
2022-08-11T00:16:58.717Z,25.70
2022-08-11T00:20:13.044Z,25.70
2022-08-11T00:22:23.549Z,25.60
2022-08-11T00:24:53.322Z,25.60
2022-08-11T00:27:33.331Z,25.50
2022-08-11T00:30:00.433Z,25.40
2022-08-11T00:32:28.544Z,25.40
2022-08-11T00:35:53.702Z,25.30
2022-08-11T00:37:52.385Z,25.20
2022-08-11T00:40:33.277Z,25.20
2022-08-11T00:43:20.762Z,25.20
2022-08-11T00:46:23.203Z,25.20
2022-08-11T00:49:17.560Z,25.10
2022-08-11T00:52:04.664Z,25.10
2022-08-11T00:54:46.609Z,25.00
2022-08-11T00:57:56.790Z,25.00
2022-08-11T01:00:27.057Z,24.90
2022-08-11T01:03:32.619Z,24.90
2022-08-11T01:06:32.945Z,24.80
2022-08-11T01:09:38.713Z,24.80
2022-08-11T01:12:32.663Z,24.80
2022-08-11T01:15:17.435Z,24.70
2022-08-11T01:18:12.028Z,24.70
2022-08-11T01:21:09.837Z,24.70
2022-08-11T01:24:04.416Z,24.70
2022-08-11T01:27:04.685Z,24.60
2022-08-11T01:30:10.167Z,24.60
2022-08-11T01:32:55.616Z,24.60
2022-08-11T01:35:44.133Z,24.50
2022-08-11T01:38:42.557Z,24.50
2022-08-11T01:41:56.530Z,24.50
2022-08-11T01:44:44.717Z,24.50
2022-08-11T01:47:52.931Z,24.40
2022-08-11T01:50:46.355Z,24.40
2022-08-11T01:53:40.272Z,24.30
2022-08-11T01:56:26.466Z,24.30
2022-08-11T01:59:17.109Z,24.30
2022-08-11T02:02:21.284Z,24.20
2022-08-11T02:05:26.618Z,24.20
2022-08-11T02:08:11.875Z,24.20
2022-08-11T02:11:15.828Z,24.10
2022-08-11T02:13:52.134Z,24.10
2022-08-11T02:16:24.969Z,24.00
2022-08-11T02:19:36.667Z,24.00
2022-08-11T02:22:34.695Z,24.00
2022-08-11T02:25:09.584Z,24.00
2022-08-11T02:28:02.439Z,23.90
2022-08-11T02:30:35.492Z,23.90
2022-08-11T02:33:34.519Z,23.80
2022-08-11T02:36:08.861Z,23.80
2022-08-11T02:39:08.114Z,23.80
2022-08-11T02:42:07.630Z,23.70
2022-08-11T02:45:06.549Z,23.70
2022-08-11T02:47:42.371Z,23.70
2022-08-11T02:50:17.775Z,23.70
2022-08-11T02:53:03.320Z,23.60
2022-08-11T02:55:57.025Z,23.60
2022-08-11T02:59:08.942Z,23.60
2022-08-11T03:01:53.176Z,23.50
2022-08-11T03:05:02.169Z,23.50
2022-08-11T03:07:52.179Z,23.50
2022-08-11T03:10:40.810Z,23.50
2022-08-11T03:13:41.022Z,23.40
2022-08-11T03:16:42.954Z,23.40
2022-08-11T03:19:23.067Z,23.40
2022-08-11T03:22:11.357Z,23.30
2022-08-11T03:24:54.738Z,23.30
2022-08-11T03:27:27.416Z,23.30
2022-08-11T03:30:13.181Z,23.30
2022-08-11T03:33:38.686Z,23.20
2022-08-11T03:36:14.551Z,23.10
2022-08-11T03:38:49.878Z,23.10
2022-08-11T03:42:01.480Z,23.10
2022-08-11T03:44:37.348Z,23.10
2022-08-11T03:47:26.173Z,23.00
2022-08-11T03:50:28.901Z,23.00
2022-08-11T03:53:32.214Z,23.00
2022-08-11T03:56:29.786Z,22.90
2022-08-11T03:59:34.764Z,22.90
2022-08-11T04:02:39.661Z,22.90
2022-08-11T04:05:33.733Z,22.80
2022-08-11T04:08:12.181Z,22.70
2022-08-11T04:11:00.343Z,22.70
2022-08-11T04:13:58.171Z,22.70
2022-08-11T04:16:41.628Z,22.70
2022-08-11T04:19:38.771Z,22.60
2022-08-11T04:22:41.851Z,22.60
2022-08-11T04:25:27.089Z,22.60
2022-08-11T04:28:06.075Z,22.60
2022-08-11T04:31:03.759Z,22.60
2022-08-11T04:34:06.682Z,22.50
2022-08-11T04:36:56.170Z,22.50
2022-08-11T04:40:00.938Z,22.50
2022-08-11T04:43:21.194Z,22.50
2022-08-11T04:46:20.493Z,22.40
2022-08-11T04:49:12.254Z,22.40
2022-08-11T04:52:38.438Z,22.30
2022-08-11T04:55:38.839Z,22.30
2022-08-11T04:58:41.357Z,22.30
2022-08-11T05:01:36.956Z,22.30
2022-08-11T05:04:37.952Z,22.30
2022-08-11T05:07:35.454Z,22.30
2022-08-11T05:10:14.832Z,22.30
2022-08-11T05:13:18.327Z,22.30
2022-08-11T05:16:11.087Z,22.30
2022-08-11T05:19:08.732Z,22.30
2022-08-11T05:21:57.244Z,22.30
2022-08-11T05:24:55.748Z,22.30
2022-08-11T05:27:45.468Z,22.30
2022-08-11T05:30:34.350Z,22.30
2022-08-11T05:33:30.441Z,22.30
2022-08-11T05:36:35.147Z,22.30
2022-08-11T05:39:36.418Z,22.30
2022-08-11T05:42:30.101Z,22.30
2022-08-11T05:45:54.819Z,22.20
2022-08-11T05:48:39.699Z,22.30
2022-08-11T05:51:30.368Z,22.30
2022-08-11T05:54:29.190Z,22.40
2022-08-11T05:57:01.136Z,22.40
2022-08-11T05:59:28.779Z,22.40
2022-08-11T06:02:05.960Z,22.50
2022-08-11T06:04:34.498Z,22.50
2022-08-11T06:07:09.316Z,22.50
2022-08-11T06:09:37.925Z,22.60
2022-08-11T06:12:17.147Z,22.60
2022-08-11T06:14:46.152Z,22.60
2022-08-11T06:17:13.896Z,22.70
2022-08-11T06:19:42.766Z,22.70
2022-08-11T06:22:13.280Z,22.70
2022-08-11T06:24:42.580Z,22.70
2022-08-11T06:27:13.114Z,22.80
2022-08-11T06:29:55.123Z,22.80
2022-08-11T06:32:29.111Z,22.90
2022-08-11T06:35:18.827Z,22.90
2022-08-11T06:38:07.343Z,23.00
2022-08-11T06:41:11.606Z,23.10
2022-08-11T06:43:55.897Z,23.10
2022-08-11T09:54:18.998Z,32.70
2022-08-11T09:57:05.526Z,32.80
2022-08-11T09:59:32.824Z,32.90
2022-08-11T10:02:03.539Z,33.10
2022-08-11T10:04:48.484Z,33.20
2022-08-11T10:07:16.859Z,33.30
2022-08-11T10:09:56.287Z,33.50
2022-08-11T10:12:26.145Z,33.60
2022-08-11T10:15:15.353Z,33.90
2022-08-11T10:18:20.543Z,34.00
2022-08-11T10:20:50.290Z,34.10
2022-08-11T10:24:01.463Z,34.30
2022-08-11T10:26:45.737Z,34.40
2022-08-11T10:29:36.815Z,34.50
2022-08-11T10:32:31.460Z,34.60
2022-08-11T10:35:01.366Z,34.60
2022-08-11T10:38:06.295Z,34.70
2022-08-11T10:40:27.660Z,34.80
2022-08-11T10:43:03.557Z,34.90
2022-08-11T10:45:52.477Z,34.90
2022-08-11T10:48:21.467Z,35.00
2022-08-11T10:51:08.062Z,35.10
2022-08-11T10:53:58.115Z,35.30
2022-08-11T10:56:47.226Z,35.40
2022-08-11T10:59:15.532Z,35.40
2022-08-11T11:01:44.183Z,35.50
2022-08-11T11:04:17.837Z,35.50
2022-08-11T11:07:04.855Z,35.60
2022-08-11T11:09:58.147Z,35.70
2022-08-11T11:12:46.450Z,35.80
2022-08-11T11:15:36.381Z,36.00
2022-08-11T11:18:09.477Z,36.10
2022-08-11T11:20:41.629Z,36.20
2022-08-11T11:23:38.232Z,36.30
2022-08-11T11:26:31.510Z,36.40
2022-08-11T11:29:13.382Z,36.60
2022-08-11T11:31:46.287Z,36.70
2022-08-11T11:34:34.297Z,36.70
2022-08-11T11:37:03.399Z,36.80
2022-08-11T11:39:35.248Z,36.80
2022-08-11T11:42:07.922Z,36.80
2022-08-11T11:44:36.948Z,36.90
2022-08-11T11:47:05.451Z,37.00
2022-08-11T11:49:35.816Z,37.10
2022-08-11T11:52:03.007Z,37.20
2022-08-11T11:54:33.750Z,37.20
2022-08-11T11:57:21.768Z,37.30
2022-08-11T12:00:33.355Z,37.30
2022-08-11T12:03:05.108Z,37.40
2022-08-11T12:05:34.585Z,37.40
2022-08-11T12:08:18.614Z,37.40
2022-08-11T12:11:15.887Z,37.50
2022-08-11T12:13:45.843Z,37.60
2022-08-11T12:16:33.158Z,37.70
2022-08-11T12:19:03.187Z,37.70
2022-08-11T12:21:30.718Z,37.80
2022-08-11T12:24:19.194Z,37.80
2022-08-11T12:27:14.870Z,37.90
2022-08-11T12:29:41.232Z,38.00
2022-08-11T12:32:11.628Z,38.10
2022-08-11T12:34:38.914Z,38.00
2022-08-11T12:37:13.018Z,38.00
2022-08-11T12:40:16.499Z,38.00
2022-08-11T12:43:21.065Z,38.10
2022-08-11T12:45:58.339Z,38.20
2022-08-11T12:48:59.227Z,38.30
2022-08-11T12:52:12.785Z,38.30
2022-08-11T12:54:52.487Z,38.30
2022-08-11T12:58:03.806Z,38.30
2022-08-11T13:00:50.379Z,38.30
2022-08-11T13:03:38.949Z,38.50
2022-08-11T13:06:07.475Z,38.60
2022-08-11T13:08:37.071Z,38.80
2022-08-11T13:11:23.723Z,38.90
2022-08-11T13:13:57.014Z,39.00
2022-08-11T13:16:53.840Z,39.10
2022-08-11T13:19:21.977Z,39.20
2022-08-11T13:21:53.502Z,39.20
2022-08-11T13:24:21.833Z,39.30
2022-08-11T13:26:50.584Z,39.40
2022-08-11T13:29:20.835Z,39.40
2022-08-11T13:31:48.664Z,39.40
2022-08-11T13:34:17.713Z,39.40
2022-08-11T13:36:45.815Z,39.50
2022-08-11T13:39:14.141Z,39.50
2022-08-11T13:41:45.090Z,39.60
2022-08-11T13:44:18.195Z,39.60
2022-08-11T13:46:48.641Z,39.60
2022-08-11T13:49:21.855Z,39.60
2022-08-11T13:51:49.267Z,39.60
2022-08-11T13:54:22.662Z,39.60
2022-08-11T13:56:53.724Z,39.60
2022-08-11T13:59:23.850Z,39.70
2022-08-11T14:02:22.744Z,39.70
2022-08-11T14:04:56.845Z,39.70
2022-08-11T14:07:27.430Z,39.80
2022-08-11T14:09:58.970Z,39.90
2022-08-11T14:12:50.689Z,40.00
2022-08-11T14:15:26.215Z,40.10
2022-08-11T14:18:01.696Z,40.20
2022-08-11T14:20:50.965Z,40.10
2022-08-11T14:23:19.565Z,40.00
2022-08-11T14:26:06.358Z,40.00
2022-08-11T14:28:41.510Z,40.00
2022-08-11T14:31:12.058Z,40.10
2022-08-11T14:33:59.688Z,40.10
2022-08-11T14:36:38.066Z,40.20
2022-08-11T14:39:18.610Z,40.20
2022-08-11T14:42:16.791Z,40.10
2022-08-11T14:45:17.011Z,40.00
2022-08-11T14:47:48.729Z,39.90
2022-08-11T14:50:23.152Z,39.80
2022-08-11T14:52:56.925Z,39.80
2022-08-11T14:55:44.367Z,39.80
2022-08-11T14:58:15.867Z,39.90
2022-08-11T15:00:44.133Z,40.00
2022-08-11T15:03:14.285Z,40.00
2022-08-11T15:05:58.317Z,40.00
2022-08-11T15:08:56.782Z,40.10
2022-08-11T15:11:50.740Z,40.20
2022-08-11T15:14:38.748Z,40.10
2022-08-11T15:17:10.330Z,40.10
2022-08-11T15:20:00.303Z,40.10
2022-08-11T15:22:46.243Z,40.10
2022-08-11T15:25:13.568Z,40.10
2022-08-11T15:28:01.357Z,40.10
2022-08-11T15:30:47.981Z,40.10
2022-08-11T15:33:35.552Z,40.00
2022-08-11T15:36:26.177Z,39.90
2022-08-11T15:38:58.442Z,39.80
2022-08-11T15:41:59.043Z,39.70
2022-08-11T15:45:05.354Z,39.60
2022-08-11T15:48:05.349Z,39.40
2022-08-11T15:50:38.717Z,39.20
2022-08-11T15:53:12.160Z,39.10
2022-08-11T15:55:39.778Z,39.10
2022-08-11T15:58:28.100Z,39.00
2022-08-11T16:01:15.232Z,39.00
2022-08-11T16:04:12.619Z,39.10
2022-08-11T16:06:47.451Z,39.20
2022-08-11T16:09:18.272Z,39.10
2022-08-11T16:11:47.463Z,39.00
2022-08-11T16:14:35.946Z,38.80
2022-08-11T16:17:04.556Z,38.70
2022-08-11T16:19:36.009Z,38.70
2022-08-11T16:22:08.306Z,38.70
2022-08-11T16:27:05.453Z,38.80
2022-08-11T16:27:35.102Z,38.70
2022-08-11T16:30:03.832Z,38.60
2022-08-11T16:32:32.203Z,38.60
2022-08-11T16:35:25.962Z,38.60
2022-08-11T16:38:13.465Z,38.60
2022-08-11T16:40:41.638Z,38.50
2022-08-11T16:43:32.109Z,38.40
2022-08-11T16:46:20.607Z,38.30
2022-08-11T16:48:49.524Z,38.30
2022-08-11T16:51:17.530Z,38.20
2022-08-11T16:54:04.526Z,38.10
2022-08-11T16:56:49.101Z,38.00
2022-08-11T16:59:19.656Z,38.00
2022-08-11T17:01:55.959Z,37.90
2022-08-11T17:05:02.721Z,37.80
2022-08-11T17:07:49.321Z,37.70
2022-08-11T17:11:03.293Z,37.50
2022-08-11T17:13:46.617Z,37.50
2022-08-11T17:16:20.245Z,37.30
2022-08-11T17:19:04.565Z,37.20
2022-08-11T17:22:06.063Z,37.20
2022-08-11T17:24:37.157Z,37.10
2022-08-11T17:27:11.597Z,36.90
2022-08-11T17:29:57.350Z,36.90
2022-08-11T17:32:56.445Z,36.80
2022-08-11T17:35:33.533Z,36.80
2022-08-11T17:38:05.575Z,36.70
2022-08-11T17:40:37.067Z,36.70
2022-08-11T17:43:25.095Z,36.60
2022-08-11T17:46:05.436Z,36.40
2022-08-11T17:48:47.846Z,36.30
2022-08-11T17:51:38.908Z,36.20
2022-08-11T17:54:26.304Z,36.20
2022-08-11T17:57:20.112Z,36.20
2022-08-11T17:59:53.304Z,36.20
2022-08-11T18:02:49.891Z,36.10
2022-08-11T18:05:20.397Z,35.90
2022-08-11T18:08:09.902Z,35.80
2022-08-11T18:10:56.409Z,35.70
2022-08-11T18:13:44.346Z,35.60
2022-08-11T18:16:30.566Z,35.50
2022-08-11T18:19:16.988Z,35.30
2022-08-11T18:22:14.812Z,35.20
2022-08-11T18:25:10.167Z,35.20
2022-08-11T18:27:59.131Z,35.10
2022-08-11T18:30:45.883Z,35.00
2022-08-11T18:34:03.874Z,34.90
2022-08-11T18:36:49.571Z,34.90
2022-08-11T18:39:38.324Z,34.80
2022-08-11T18:42:30.922Z,34.70
2022-08-11T18:45:25.209Z,34.70
2022-08-11T18:48:20.537Z,34.60
2022-08-11T18:51:30.702Z,34.60
2022-08-11T18:54:18.433Z,34.50
2022-08-11T18:57:06.457Z,34.40
2022-08-11T19:00:00.128Z,34.30
2022-08-11T19:02:49.479Z,34.20
2022-08-11T19:06:36.108Z,34.20
2022-08-11T19:08:48.815Z,34.10
2022-08-11T19:11:34.912Z,34.10
2022-08-11T19:14:30.156Z,34.00
2022-08-11T19:17:44.337Z,34.00
2022-08-11T19:20:30.581Z,33.90
2022-08-11T19:23:17.674Z,33.80
2022-08-11T19:26:04.677Z,33.80
2022-08-11T19:28:52.754Z,33.70
2022-08-11T19:31:44.338Z,33.60
2022-08-11T19:34:35.365Z,33.50
2022-08-11T19:37:24.942Z,33.40
2022-08-11T19:40:19.728Z,33.30
2022-08-11T19:43:18.582Z,33.20
2022-08-11T19:46:15.973Z,33.10
2022-08-11T19:49:04.094Z,33.00
2022-08-11T19:51:53.771Z,32.90
2022-08-11T19:54:44.659Z,32.80
2022-08-11T19:57:35.708Z,32.60
2022-08-11T20:00:30.216Z,32.50
2022-08-11T20:03:17.546Z,32.40
2022-08-11T20:06:04.110Z,32.30
2022-08-11T20:08:53.003Z,32.20
2022-08-11T20:11:42.537Z,32.20
2022-08-11T20:14:29.921Z,32.10
2022-08-11T20:17:17.403Z,32.00
2022-08-11T20:20:03.300Z,31.90
2022-08-11T20:22:50.411Z,31.80
2022-08-11T20:25:38.108Z,31.70
2022-08-11T20:28:25.341Z,31.70
2022-08-11T20:31:12.408Z,31.60
2022-08-11T20:33:59.153Z,31.60
2022-08-11T20:36:48.715Z,31.50
2022-08-11T20:39:41.435Z,31.40
2022-08-11T20:42:30.469Z,31.40
2022-08-11T20:45:23.393Z,31.30
2022-08-11T20:48:15.382Z,31.30
2022-08-11T20:51:07.390Z,31.20
2022-08-11T20:53:59.655Z,31.10
2022-08-11T20:56:53.860Z,31.00
2022-08-11T20:59:50.177Z,31.00
2022-08-11T21:02:44.454Z,30.90
2022-08-11T21:08:41.690Z,30.70
2022-08-11T21:11:29.471Z,30.60
2022-08-11T21:14:17.801Z,30.60
2022-08-11T21:17:27.628Z,30.50
2022-08-11T21:20:20.796Z,30.40
2022-08-11T21:23:16.104Z,30.40
2022-08-11T21:26:33.291Z,30.30
2022-08-11T21:29:19.835Z,30.20
2022-08-11T21:32:07.842Z,30.20
2022-08-11T21:34:54.861Z,30.10
2022-08-11T21:37:41.574Z,30.00
2022-08-11T21:40:29.730Z,30.00
2022-08-11T21:43:18.367Z,29.90
2022-08-11T21:46:05.749Z,29.90
2022-08-11T21:48:53.401Z,29.80
2022-08-11T21:51:41.594Z,29.70
2022-08-11T21:54:30.769Z,29.70
2022-08-11T21:57:21.183Z,29.60
2022-08-11T22:00:14.988Z,29.60
2022-08-11T22:03:04.517Z,29.50
2022-08-11T22:05:51.899Z,29.50
2022-08-11T22:08:38.112Z,29.40
2022-08-11T22:11:31.737Z,29.30
2022-08-11T22:14:20.113Z,29.30
2022-08-11T22:17:05.704Z,29.20
2022-08-11T22:19:53.188Z,29.00
2022-08-11T22:22:51.864Z,28.90
2022-08-11T22:25:53.683Z,28.90
2022-08-11T22:28:42.017Z,28.80
2022-08-11T22:31:29.230Z,28.70
2022-08-11T22:34:14.709Z,28.70
2022-08-11T22:37:02.018Z,28.60
2022-08-11T22:40:02.452Z,28.60
2022-08-11T22:42:50.217Z,28.60
2022-08-11T22:45:36.265Z,28.60
2022-08-11T22:48:24.194Z,28.60
2022-08-11T22:51:11.805Z,28.50
2022-08-11T22:53:59.122Z,28.50
2022-08-11T22:56:47.415Z,28.40
2022-08-11T22:59:35.674Z,28.40
2022-08-11T23:02:25.693Z,28.30
2022-08-11T23:05:12.202Z,28.20
2022-08-11T23:07:58.212Z,28.20
2022-08-11T23:10:44.640Z,28.20
2022-08-11T23:13:31.518Z,28.10
2022-08-11T23:16:17.260Z,28.10
2022-08-11T23:19:04.016Z,28.00
2022-08-11T23:21:50.727Z,27.90
2022-08-11T23:24:36.911Z,27.80
2022-08-11T23:27:24.658Z,27.80
2022-08-11T23:30:11.376Z,27.70
2022-08-11T23:32:59.446Z,27.60
2022-08-11T23:35:53.562Z,27.60
2022-08-11T23:38:40.669Z,27.60
2022-08-11T23:41:26.270Z,27.50
2022-08-11T23:44:12.773Z,27.50
2022-08-11T23:46:59.165Z,27.50
2022-08-11T23:49:45.696Z,27.40
2022-08-11T23:52:32.153Z,27.30
2022-08-11T23:55:18.132Z,27.30
2022-08-11T23:58:03.463Z,27.20
